Time;durP1;ratioP1;P1;durP2;ratioP2;P2;SDS_P1;SDS_P2;PMS_P1;PMS_P2;Temp;Humidity;BMP_temperature;BMP_pressure;BME280_temperature;BME280_humidity;BME280_pressure;Samples;Min_cycle;Max_cycle;Signal;HPM_P1;HPM_P2
2021/03/05 00:00:33;;;;;;;38.50;27.58;;;;;;;24.75;13.77;94380.22;5096638;28;20537;-46
2021/03/05 00:03:00;;;;;;;42.60;26.58;;;;;;;24.48;14.12;94361.00;5096458;28;20055;-46
2021/03/05 00:05:28;;;;;;;35.40;26.95;;;;;;;24.82;13.58;94369.53;5097130;28;20056;-45
2021/03/05 00:07:55;;;;;;;35.95;26.42;;;;;;;24.45;14.13;94367.06;5096855;28;20048;-46
2021/03/05 00:10:30;;;;;;;37.53;26.52;;;;;;;24.43;14.03;94367.44;5096396;28;20458;-45
2021/03/05 00:12:58;;;;;;;37.15;27.17;;;;;;;24.50;13.99;94359.50;5096758;28;20052;-45
2021/03/05 00:15:29;;;;;;;39.65;27.73;;;;;;;24.31;14.29;94367.00;5097130;28;20039;-45
2021/03/05 00:17:57;;;;;;;38.75;27.35;;;;;;;24.64;14.38;94363.34;5086231;28;20053;-47
2021/03/05 00:20:27;;;;;;;33.80;25.80;;;;;;;24.67;14.02;94362.59;5057940;28;20336;-47
2021/03/05 00:22:54;;;;;;;43.60;28.50;;;;;;;23.96;14.90;94365.63;5096960;28;20052;-46
2021/03/05 00:25:22;;;;;;;35.05;25.50;;;;;;;24.44;13.79;94360.97;5096825;28;20051;-45
2021/03/05 00:27:49;;;;;;;35.55;25.45;;;;;;;24.36;13.77;94362.06;5096629;28;20052;-46
2021/03/05 00:30:17;;;;;;;34.13;26.02;;;;;;;25.18;13.04;94355.16;5096193;28;20047;-47
2021/03/05 00:32:44;;;;;;;33.97;24.95;;;;;;;24.22;13.60;94354.72;5096384;28;20051;-46
2021/03/05 00:35:13;;;;;;;32.45;25.52;;;;;;;24.49;13.49;94346.50;5096549;28;20439;-47
2021/03/05 00:37:41;;;;;;;34.13;25.40;;;;;;;24.65;13.50;94343.50;5096169;28;20450;-47
2021/03/05 00:40:11;;;;;;;31.13;23.80;;;;;;;24.40;13.49;94338.81;5096173;28;20035;-45
2021/03/05 00:42:39;;;;;;;34.45;24.92;;;;;;;24.54;13.53;94338.88;5076033;28;20079;-46
2021/03/05 00:45:08;;;;;;;28.60;22.52;;;;;;;24.33;13.45;94336.09;5096333;28;20044;-46
2021/03/05 00:47:36;;;;;;;35.72;24.75;;;;;;;24.48;13.74;94345.75;5096247;28;20051;-46
2021/03/05 00:50:05;;;;;;;34.30;25.30;;;;;;;23.84;14.49;94334.63;5078319;28;20051;-46
2021/03/05 00:52:33;;;;;;;33.88;24.42;;;;;;;23.34;14.89;94328.09;5062552;28;20052;-46
2021/03/05 00:55:00;;;;;;;35.00;25.35;;;;;;;23.80;14.73;94341.84;5070257;28;20044;-46
2021/03/05 00:57:29;;;;;;;34.08;25.70;;;;;;;24.04;14.60;94339.72;5074335;28;20435;-45
2021/03/05 00:59:57;;;;;;;41.38;27.92;;;;;;;23.44;14.96;94342.69;5075710;28;20041;-46
2021/03/05 01:02:24;;;;;;;38.75;28.35;;;;;;;23.46;15.04;94329.75;5092654;28;20450;-47
2021/03/05 01:04:52;;;;;;;42.38;29.20;;;;;;;23.51;15.37;94332.06;5078164;28;20048;-45
2021/03/05 01:07:20;;;;;;;38.08;28.30;;;;;;;23.20;15.37;94328.75;5083330;28;20047;-46
2021/03/05 01:09:49;;;;;;;41.08;28.98;;;;;;;23.49;14.82;94331.66;5098204;28;20048;-46
2021/03/05 01:12:16;;;;;;;42.45;31.02;;;;;;;23.72;14.79;94331.50;5082252;28;20050;-47
2021/03/05 01:14:43;;;;;;;45.97;34.28;;;;;;;23.28;14.84;94329.56;5095778;28;20051;-45
2021/03/05 01:17:11;;;;;;;44.95;32.63;;;;;;;22.74;15.53;94329.00;5095587;28;20473;-45
2021/03/05 01:19:38;;;;;;;41.25;28.88;;;;;;;23.67;14.57;94329.91;5095329;28;20047;-46
2021/03/05 01:22:05;;;;;;;38.17;29.20;;;;;;;23.01;15.34;94326.25;5095562;28;20040;-46
2021/03/05 01:24:32;;;;;;;42.65;28.80;;;;;;;22.77;15.53;94320.28;5095822;28;20043;-45
2021/03/05 01:26:59;;;;;;;36.95;26.35;;;;;;;23.50;14.94;94319.84;5095535;28;20044;-45
2021/03/05 01:29:26;;;;;;;36.28;26.70;;;;;;;23.07;15.53;94320.22;5095471;28;20048;-45
2021/03/05 01:31:54;;;;;;;38.30;26.85;;;;;;;22.90;15.58;94314.69;5095157;28;20051;-47
2021/03/05 01:34:21;;;;;;;37.17;27.63;;;;;;;22.52;15.73;94315.78;5091513;28;20044;-53
2021/03/05 01:36:49;;;;;;;36.65;25.88;;;;;;;22.18;16.07;94310.44;5077367;28;20041;-45
2021/03/05 01:39:17;;;;;;;37.88;25.15;;;;;;;22.22;16.44;94315.78;5115793;28;20445;-46
2021/03/05 01:41:44;;;;;;;38.72;27.52;;;;;;;22.23;16.11;94320.00;5105054;28;20048;-46
2021/03/05 01:44:13;;;;;;;35.00;25.25;;;;;;;22.63;15.98;94322.75;5095410;28;20370;-47
2021/03/05 01:46:40;;;;;;;36.83;23.73;;;;;;;22.32;16.16;94328.47;5095132;28;20522;-45
2021/03/05 01:49:07;;;;;;;33.70;24.67;;;;;;;22.25;16.03;94323.06;5095624;28;20048;-46
2021/03/05 01:51:36;;;;;;;35.38;22.73;;;;;;;22.37;16.08;94325.47;5077211;28;20048;-47
2021/03/05 01:54:04;;;;;;;30.25;22.73;;;;;;;22.34;16.04;94326.97;5094972;28;20474;-48
2021/03/05 01:56:49;;;;;;;30.98;23.23;;;;;;;22.38;16.22;94329.69;5093601;28;20044;-47
2021/03/05 01:59:21;;;;;;;34.35;22.77;;;;;;;22.98;15.56;94327.00;5057548;28;20048;-47
2021/03/05 02:01:48;;;;;;;32.60;22.77;;;;;;;22.50;15.81;94324.13;5084806;28;20047;-46
2021/03/05 02:04:16;;;;;;;29.98;22.00;;;;;;;22.65;15.88;94323.19;5094931;28;20063;-46
2021/03/05 02:06:43;;;;;;;34.63;23.50;;;;;;;22.54;15.90;94319.63;5094573;28;20331;-47
2021/03/05 02:09:10;;;;;;;32.35;21.92;;;;;;;22.58;15.91;94323.09;5116392;28;20043;-45
2021/03/05 02:11:37;;;;;;;35.53;22.05;;;;;;;22.05;16.19;94317.84;5110104;28;20051;-46
2021/03/05 02:14:09;;;;;;;31.92;21.52;;;;;;;22.31;16.22;94334.91;5081037;28;20048;-46
2021/03/05 02:16:39;;;;;;;31.05;22.05;;;;;;;22.20;16.22;94323.38;5081324;28;20378;-46
2021/03/05 02:19:30;;;;;;;30.85;21.98;;;;;;;22.26;16.12;94333.34;5098801;28;20335;-46
2021/03/05 02:22:09;;;;;;;31.42;21.75;;;;;;;22.19;16.13;94324.50;5097995;28;20048;-45
2021/03/05 02:24:52;;;;;;;33.30;22.60;;;;;;;22.30;15.83;94336.06;5098381;28;20055;-45
2021/03/05 02:27:50;;;;;;;26.33;19.73;;;;;;;22.38;16.00;94332.34;5080644;28;20051;-47
2021/03/05 02:30:48;;;;;;;32.17;20.50;;;;;;;22.38;15.61;94327.00;5078776;28;20063;-47
2021/03/05 02:33:40;;;;;;;39.90;21.20;;;;;;;22.63;15.33;94332.66;5077489;28;20363;-46
2021/03/05 02:36:10;;;;;;;30.20;19.70;;;;;;;;;;5077671;28;20051;-45
2021/03/05 02:38:37;;;;;;;26.33;20.02;;;;;;;22.13;15.66;94324.81;5110200;28;20055;-46
2021/03/05 02:41:05;;;;;;;26.58;20.13;;;;;;;23.16;14.81;94333.28;5097235;28;20052;-46
2021/03/05 02:43:34;;;;;;;30.33;21.67;;;;;;;22.33;15.91;94336.09;5079579;28;20048;-46
2021/03/05 02:46:08;;;;;;;34.65;21.80;;;;;;;22.61;15.90;94340.25;5079980;28;20355;-45
2021/03/05 02:48:43;;;;;;;31.58;21.88;;;;;;;22.34;16.11;94345.63;5077192;28;20051;-45
2021/03/05 02:51:12;;;;;;;28.52;21.83;;;;;;;21.62;16.26;94339.63;5078094;28;20045;-45
2021/03/05 02:53:41;;;;;;;29.27;21.88;;;;;;;21.84;16.42;94342.22;5077184;28;20048;-48
2021/03/05 02:56:16;;;;;;;32.22;22.08;;;;;;;22.10;16.15;94338.06;5076897;28;20048;-44
2021/03/05 02:58:48;;;;;;;32.28;22.13;;;;;;;21.78;16.41;94342.88;5078156;28;20052;-45
2021/03/05 03:01:16;;;;;;;29.15;22.17;;;;;;;22.13;16.14;94338.13;5077935;28;20351;-46
2021/03/05 03:03:43;;;;;;;29.15;21.75;;;;;;;22.19;16.07;94341.25;5077928;28;20048;-47
2021/03/05 03:06:12;;;;;;;31.98;21.48;;;;;;;22.34;15.99;94342.19;5095472;28;20044;-46
2021/03/05 03:08:40;;;;;;;34.95;22.42;;;;;;;21.89;16.43;94343.84;5096280;28;20387;-46
2021/03/05 03:11:07;;;;;;;29.80;20.45;;;;;;;22.10;16.07;94338.06;5118425;28;20054;-46
2021/03/05 03:13:37;;;;;;;33.55;20.58;;;;;;;22.92;15.57;94336.47;5100637;28;20054;-46
2021/03/05 03:16:05;;;;;;;27.05;19.88;;;;;;;22.25;15.98;94344.34;5083618;28;20079;-46
2021/03/05 03:18:34;;;;;;;27.02;20.05;;;;;;;21.85;16.14;94349.06;5097909;28;20079;-45
2021/03/05 03:21:02;;;;;;;25.65;18.92;;;;;;;21.32;16.76;94358.09;5079601;28;20044;-45
2021/03/05 03:23:29;;;;;;;27.35;19.85;;;;;;;21.75;16.51;94359.56;5097816;28;20442;-45
2021/03/05 03:26:00;;;;;;;27.50;20.13;;;;;;;21.72;16.42;94355.72;5097631;28;20040;-46
2021/03/05 03:28:27;;;;;;;32.95;20.50;;;;;;;22.11;15.99;94361.66;5097807;28;20110;-47
2021/03/05 03:30:54;;;;;;;22.30;16.88;;;;;;;21.50;16.40;94353.84;5097633;28;20051;-45
2021/03/05 03:33:21;;;;;;;22.80;16.55;;;;;;;21.89;16.09;94357.13;5097811;28;20060;-44
2021/03/05 03:35:49;;;;;;;25.23;16.80;;;;;;;21.63;15.99;94357.09;5097451;28;20444;-46
2021/03/05 03:38:16;;;;;;;26.92;17.98;;;;;;;21.93;16.14;94355.28;5089379;28;20058;-47
2021/03/05 03:40:44;;;;;;;24.48;17.05;;;;;;;21.69;16.10;94355.69;5096331;28;20044;-46
2021/03/05 03:43:11;;;;;;;24.02;16.98;;;;;;;21.70;16.24;94354.56;5097630;28;20052;-45
2021/03/05 03:45:40;;;;;;;23.20;17.48;;;;;;;21.72;16.09;94360.28;5096555;28;20374;-47
2021/03/05 03:48:09;;;;;;;20.80;16.60;;;;;;;21.52;16.04;94357.69;5076209;28;20052;-45
2021/03/05 03:50:47;;;;;;;21.08;15.75;;;;;;;21.84;15.95;94355.53;5075992;28;20489;-48
2021/03/05 03:53:22;;;;;;;20.92;15.23;;;;;;;22.28;15.41;94360.38;5063917;28;20051;-46
2021/03/05 03:55:53;;;;;;;23.52;15.98;;;;;;;22.31;15.19;94350.91;5064828;28;20055;-47
2021/03/05 03:58:21;;;;;;;22.63;15.77;;;;;;;22.00;15.66;94355.41;5077095;28;20055;-47
2021/03/05 04:00:51;;;;;;;20.02;15.00;;;;;;;21.99;15.29;94351.19;5076735;28;20047;-45
2021/03/05 04:03:19;;;;;;;23.05;15.52;;;;;;;21.95;15.50;94347.72;5075963;28;20056;-47
2021/03/05 04:05:47;;;;;;;21.63;14.48;;;;;;;21.90;15.54;94353.34;5076765;28;20067;-46
2021/03/05 04:08:14;;;;;;;19.92;14.70;;;;;;;22.17;15.38;94354.16;5075623;28;20123;-47
2021/03/05 04:10:42;;;;;;;17.80;13.52;;;;;;;21.83;15.57;94361.97;5075541;28;20036;-45
2021/03/05 04:13:10;;;;;;;19.85;13.93;;;;;;;22.04;15.43;94358.91;5075809;28;20048;-47
2021/03/05 04:15:38;;;;;;;20.15;15.52;;;;;;;22.37;15.08;94368.09;5069674;28;20048;-46
2021/03/05 04:18:06;;;;;;;25.38;16.58;;;;;;;22.90;15.03;94362.69;5055623;28;20344;-46
2021/03/05 04:20:37;;;;;;;21.00;15.73;;;;;;;22.19;15.54;94359.13;5056372;28;20079;-46
2021/03/05 04:23:06;;;;;;;22.13;15.98;;;;;;;22.28;15.40;94364.94;5056621;28;20053;-47
2021/03/05 04:25:33;;;;;;;20.52;14.00;;;;;;;22.06;15.31;94364.63;5061139;28;20048;-47
2021/03/05 04:28:00;;;;;;;24.70;15.48;;;;;;;22.33;15.32;94369.94;5076574;28;20052;-46
2021/03/05 04:30:27;;;;;;;16.17;12.65;;;;;;;22.70;14.76;94373.50;5076298;28;20366;-47
2021/03/05 04:32:55;;;;;;;19.73;13.27;;;;;;;22.06;15.18;94371.84;5075492;28;20060;-46
2021/03/05 04:35:22;;;;;;;22.02;14.57;;;;;;;23.00;14.60;94373.47;5067382;28;20053;-47
2021/03/05 04:37:49;;;;;;;20.90;13.93;;;;;;;22.83;14.84;94371.38;5075949;28;20044;-46
2021/03/05 04:40:16;;;;;;;19.25;13.75;;;;;;;22.50;15.09;94377.41;5075043;28;20048;-47
2021/03/05 04:42:43;;;;;;;25.17;16.13;;;;;;;22.54;15.36;94372.91;5075979;28;20051;-45
2021/03/05 04:45:11;;;;;;;22.95;16.15;;;;;;;21.71;16.06;94364.06;5075620;28;20047;-47
2021/03/05 04:47:38;;;;;;;31.65;16.75;;;;;;;21.79;16.00;94376.34;5066816;28;20060;-46
2021/03/05 04:50:06;;;;;;;25.90;16.02;;;;;;;21.46;16.51;94368.97;5055972;28;20391;-45
2021/03/05 04:52:33;;;;;;;25.55;17.75;;;;;;;21.91;16.06;94362.88;5055882;28;20044;-44
2021/03/05 04:55:00;;;;;;;27.17;16.98;;;;;;;21.62;16.46;94356.34;5054995;28;20379;-47
2021/03/05 04:57:27;;;;;;;24.58;17.02;;;;;;;21.88;16.14;94374.22;5075363;28;20394;-51
2021/03/05 04:59:55;;;;;;;22.73;17.45;;;;;;;21.94;15.90;94366.72;5075621;28;20056;-46
2021/03/05 05:02:22;;;;;;;25.25;15.18;;;;;;;21.77;18.63;94370.63;5075806;28;20048;-47
2021/03/05 05:04:49;;;;;;;22.52;16.00;;;;;;;24.32;16.50;94379.22;5066019;28;20048;-53
2021/03/05 05:07:16;;;;;;;21.67;15.23;;;;;;;25.12;16.20;94370.06;5061706;28;20056;-48
2021/03/05 05:09:43;;;;;;;23.00;16.23;;;;;;;26.33;15.62;94383.53;5060031;28;20079;-47
2021/03/05 05:12:10;;;;;;;26.10;16.42;;;;;;;27.05;14.97;94370.69;5055775;28;20040;-49
2021/03/05 05:14:37;;;;;;;29.38;18.02;;;;;;;27.88;14.26;94372.53;5055525;28;20048;-49
2021/03/05 05:17:06;;;;;;;26.25;19.60;;;;;;;28.27;14.55;94373.34;5064399;28;20052;-49
2021/03/05 05:19:33;;;;;;;33.00;21.35;;;;;;;28.86;14.70;94382.72;5055398;28;20048;-53
2021/03/05 05:22:00;;;;;;;24.70;19.70;;;;;;;28.84;14.93;94374.28;5055496;28;20052;-60
2021/03/05 05:24:27;;;;;;;30.88;19.65;;;;;;;29.24;14.15;94384.59;5075497;28;20048;-61
2021/03/05 05:26:54;;;;;;;28.17;19.00;;;;;;;29.99;13.60;94381.59;5070451;28;20470;-53
2021/03/05 05:29:22;;;;;;;26.42;19.25;;;;;;;33.47;11.79;94385.78;5060594;28;20044;-56
2021/03/05 05:31:49;;;;;;;37.72;23.58;;;;;;;31.84;10.48;94381.50;5075269;28;20047;-55
2021/03/05 05:34:16;;;;;;;39.25;21.88;;;;;;;30.07;10.87;94386.47;5074572;28;20385;-58
2021/03/05 05:36:43;;;;;;;44.33;25.35;;;;;;;28.17;11.94;94389.16;5063686;28;20041;-52
2021/03/05 05:39:10;;;;;;;47.10;29.92;;;;;;;27.39;12.51;94383.56;5065668;28;20056;-56
2021/03/05 05:41:40;;;;;;;39.38;27.88;;;;;;;27.58;12.22;94391.88;5055197;28;20052;-53
2021/03/05 05:44:08;;;;;;;44.50;26.55;;;;;;;26.77;13.04;94393.00;5055052;28;20455;-55
2021/03/05 05:46:35;;;;;;;39.75;23.75;;;;;;;24.80;14.28;94398.56;5067194;28;20044;-54
2021/03/05 05:49:03;;;;;;;40.58;24.35;;;;;;;24.21;14.74;94403.94;5079688;28;20064;-53
2021/03/05 05:51:34;;;;;;;39.78;23.38;;;;;;;24.24;14.51;94405.09;5057468;28;20051;-55
2021/03/05 05:54:14;;;;;;;40.08;25.55;;;;;;;24.58;14.71;94393.13;5084219;28;20059;-51
2021/03/05 05:56:42;;;;;;;41.03;23.33;;;;;;;24.01;14.77;94407.22;5076593;28;20047;-53
2021/03/05 05:59:09;;;;;;;32.40;21.33;;;;;;;24.34;14.44;94399.09;5073835;28;20382;-54
2021/03/05 06:01:36;;;;;;;39.97;23.60;;;;;;;22.83;16.07;94405.25;5075075;28;20060;-54
2021/03/05 06:04:04;;;;;;;35.08;22.90;;;;;;;23.51;15.80;94417.44;5075118;28;20066;-51
2021/03/05 06:06:32;;;;;;;40.13;24.48;;;;;;;23.56;16.08;94404.53;5080214;28;20051;-51
2021/03/05 06:09:01;;;;;;;41.80;25.10;;;;;;;23.34;16.00;94406.22;5113464;28;20058;-52
2021/03/05 06:11:39;;;;;;;38.78;25.17;;;;;;;23.91;15.42;94420.09;5115410;28;20066;-53
2021/03/05 06:14:09;;;;;;;41.47;25.35;;;;;;;23.48;15.80;94407.50;5115564;28;20051;-55
2021/03/05 06:16:51;;;;;;;47.17;29.48;;;;;;;23.37;15.75;94412.72;5104767;28;20063;-56
2021/03/05 06:19:20;;;;;;;54.88;33.25;;;;;;;23.98;15.45;94420.19;5093039;28;20320;-61
2021/03/05 06:21:47;;;;;;;56.42;36.33;;;;;;;24.20;15.24;94417.63;5074833;28;20059;-53
2021/03/05 06:24:15;;;;;;;50.45;36.97;;;;;;;23.85;15.26;94421.56;5074915;28;20332;-53
2021/03/05 06:27:00;;;;;;;48.67;35.50;;;;;;;24.22;14.43;94418.81;5085158;28;20044;-54
2021/03/05 06:29:29;;;;;;;48.58;33.55;;;;;;;24.96;14.24;94412.38;5086967;28;20055;-57
2021/03/05 06:31:59;;;;;;;57.42;34.28;;;;;;;24.47;14.66;94421.69;5064895;28;20043;-53
2021/03/05 06:34:28;;;;;;;52.08;33.88;;;;;;;25.12;14.32;94418.19;5094530;28;20044;-53
2021/03/05 06:37:06;;;;;;;52.65;32.45;;;;;;;25.41;13.54;94423.63;5096718;28;20055;-54
2021/03/05 06:39:35;;;;;;;45.92;31.83;;;;;;;25.68;13.46;94424.09;5115189;28;20040;-53
2021/03/05 06:42:09;;;;;;;44.90;34.20;;;;;;;25.34;13.79;94419.03;5115163;28;20466;-53
2021/03/05 06:44:39;;;;;;;47.10;34.33;;;;;;;25.70;13.55;94411.84;5095739;28;20056;-54
2021/03/05 06:47:17;;;;;;;48.35;34.72;;;;;;;25.88;13.31;94413.78;5094789;28;20063;-54
2021/03/05 06:49:49;;;;;;;53.30;35.92;;;;;;;25.72;13.70;94409.56;5090103;28;20052;-53
2021/03/05 06:52:20;;;;;;;52.65;35.15;;;;;;;25.19;14.11;94420.13;5074541;28;20362;-55
2021/03/05 06:54:49;;;;;;;48.03;32.63;;;;;;;25.24;14.05;94421.66;5057674;28;20057;-54
2021/03/05 06:57:26;;;;;;;44.17;29.15;;;;;;;27.39;13.06;94408.50;5078226;28;20048;-55
2021/03/05 06:59:53;;;;;;;44.60;31.45;;;;;;;27.37;12.55;94416.19;5060402;28;20055;-54
2021/03/05 07:02:30;;;;;;;41.63;31.08;;;;;;;26.05;13.17;94415.72;5060433;28;20052;-55
2021/03/05 07:04:57;;;;;;;48.97;34.88;;;;;;;26.60;12.53;94417.97;5088026;28;20055;-55
2021/03/05 07:07:24;;;;;;;40.42;29.98;;;;;;;26.52;12.91;94422.56;5097677;28;20370;-55
2021/03/05 07:09:53;;;;;;;41.88;28.52;;;;;;;26.99;12.36;94417.88;5098142;28;20071;-54
2021/03/05 07:12:25;;;;;;;36.55;27.17;;;;;;;26.92;12.16;94418.63;5089902;28;20051;-53
2021/03/05 07:15:06;;;;;;;35.25;27.27;;;;;;;27.39;12.19;94416.53;5077788;28;20383;-56
2021/03/05 07:17:33;;;;;;;49.05;28.63;;;;;;;27.68;11.99;94413.72;5092329;28;20047;-53
2021/03/05 07:20:01;;;;;;;38.15;27.33;;;;;;;26.99;12.78;94407.91;5097861;28;20043;-54
2021/03/05 07:22:30;;;;;;;32.55;26.13;;;;;;;27.40;12.40;94414.63;5097901;28;20062;-53
2021/03/05 07:24:58;;;;;;;34.50;29.20;;;;;;;27.43;12.44;94416.53;5097963;28;20268;-55
2021/03/05 07:27:34;;;;;;;34.47;30.80;;;;;;;27.11;12.36;94408.63;5096433;28;20050;-54
2021/03/05 07:30:03;;;;;;;34.55;29.20;;;;;;;28.02;11.54;94411.16;5080069;28;20361;-58
2021/03/05 07:32:47;;;;;;;39.00;32.13;;;;;;;27.89;11.86;94406.28;5076600;28;20044;-55
2021/03/05 07:35:24;;;;;;;42.65;33.08;;;;;;;27.96;12.19;94397.41;5077872;28;20374;-55
2021/03/05 07:37:55;;;;;;;39.72;35.47;;;;;;;28.08;12.16;94398.81;5107245;28;20051;-56
2021/03/05 07:40:22;;;;;;;39.15;28.27;;;;;;;29.00;11.51;94405.25;5099956;28;20488;-55
2021/03/05 07:42:53;;;;;;;33.75;23.75;;;;;;;28.32;11.45;94391.72;5117883;28;20044;-53
2021/03/05 07:45:20;;;;;;;35.42;23.80;;;;;;;28.47;11.64;94398.50;5116494;28;20040;-58
2021/03/05 07:47:49;;;;;;;29.55;20.75;;;;;;;27.94;12.02;94391.66;5082428;28;20447;-56
2021/03/05 07:50:22;;;;;;;29.83;20.60;;;;;;;28.41;12.05;94389.34;5059846;28;20044;-55
2021/03/05 07:52:49;;;;;;;25.83;18.77;;;;;;;28.29;12.05;94397.91;5077114;28;20402;-54
2021/03/05 07:55:34;;;;;;;25.65;17.92;;;;;;;28.69;11.77;94399.06;5043021;28;20044;-56
2021/03/05 07:58:01;;;;;;;29.17;20.08;;;;;;;29.22;11.70;94398.47;5097330;28;20051;-55
2021/03/05 08:00:44;;;;;;;28.45;18.70;;;;;;;28.74;11.80;94395.91;5097070;28;20054;-54
2021/03/05 08:03:11;;;;;;;24.13;13.80;;;;;;;29.00;11.04;94399.88;5097295;28;20362;-54
2021/03/05 08:05:43;;;;;;;19.38;11.77;;;;;;;29.64;10.22;94386.34;5094023;28;20052;-53
2021/03/05 08:08:18;;;;;;;15.43;11.00;;;;;;;29.77;10.03;94384.63;5109979;28;20043;-55
2021/03/05 08:11:00;;;;;;;13.13;10.10;;;;;;;29.86;9.92;94377.94;5107483;28;20455;-54
2021/03/05 08:13:54;;;;;;;16.92;8.82;;;;;;;30.20;9.22;94375.13;5076766;28;20478;-54
2021/03/05 08:16:29;;;;;;;12.02;8.00;;;;;;;30.23;9.24;94366.22;5085064;28;20044;-55
2021/03/05 08:19:05;;;;;;;11.50;8.27;;;;;;;30.28;9.00;94368.44;5096742;28;20362;-52
2021/03/05 08:21:51;;;;;;;11.38;7.60;;;;;;;30.62;8.87;94370.91;5096875;28;20048;-56
2021/03/05 08:24:24;;;;;;;14.05;8.00;;;;;;;30.77;9.05;94366.03;5096774;28;20047;-58
2021/03/05 08:27:08;;;;;;;12.45;7.97;;;;;;;30.69;8.61;94368.06;5096274;28;20044;-54
2021/03/05 08:29:58;;;;;;;9.85;7.53;;;;;;;30.93;8.48;94364.13;5095690;28;20039;-54
2021/03/05 08:32:32;;;;;;;10.17;8.07;;;;;;;31.21;8.26;94357.41;5096815;28;20055;-56
2021/03/05 08:35:08;;;;;;;11.55;7.65;;;;;;;31.19;8.17;94348.97;5096632;28;20398;-55
2021/03/05 08:37:37;;;;;;;12.98;7.07;;;;;;;32.01;7.23;94343.63;5103486;28;20101;-54
2021/03/05 08:40:13;;;;;;;9.60;7.15;;;;;;;31.61;7.91;94346.50;5116723;28;20058;-52
2021/03/05 08:42:46;;;;;;;11.10;7.00;;;;;;;31.74;7.37;94344.66;5116587;28;20052;-52
2021/03/05 08:45:50;;;;;;;7.55;5.38;;;;;;;32.82;6.23;94348.94;5116838;28;20438;-53
2021/03/05 08:48:26;;;;;;;4.85;3.80;;;;;;;33.94;5.05;94347.94;5072810;28;20052;-54
2021/03/05 08:51:06;;;;;;;6.03;3.67;;;;;;;33.76;4.83;94342.28;5058334;28;20052;-54
2021/03/05 08:53:38;;;;;;;8.20;3.67;;;;;;;33.86;5.17;94349.38;5075926;28;20052;-57
2021/03/05 08:56:05;;;;;;;4.70;3.17;;;;;;;34.43;4.12;94333.94;5080961;28;20051;-56
2021/03/05 08:58:33;;;;;;;6.15;3.80;;;;;;;34.67;4.06;94337.75;5096037;28;20032;-54
2021/03/05 09:01:00;;;;;;;3.78;3.28;;;;;;;33.27;5.35;94334.47;5092246;28;20455;-55
2021/03/05 09:03:27;;;;;;;4.40;3.75;;;;;;;34.49;4.12;94332.16;5075794;28;20063;-58
2021/03/05 09:05:54;;;;;;;5.72;3.80;;;;;;;34.43;4.43;94328.50;5078849;28;20048;-57
2021/03/05 09:08:23;;;;;;;4.93;3.65;;;;;;;34.68;4.28;94333.81;5109725;28;20052;-54
2021/03/05 09:11:00;;;;;;;6.10;4.50;;;;;;;34.10;4.87;94331.53;5113703;28;20469;-54
2021/03/05 09:13:30;;;;;;;6.22;4.40;;;;;;;34.71;4.37;94327.50;5095631;28;20048;-56
2021/03/05 09:15:59;;;;;;;6.50;4.28;;;;;;;35.29;3.84;94321.50;5095958;28;20044;-53
2021/03/05 09:18:29;;;;;;;7.63;4.78;;;;;;;35.17;3.83;94309.53;5095297;28;20055;-56
2021/03/05 09:20:58;;;;;;;15.98;5.32;;;;;;;34.70;4.18;94312.41;5095557;28;20044;-53
2021/03/05 09:23:33;;;;;;;9.50;4.88;;;;;;;35.10;4.14;94309.03;5095519;28;20055;-54
2021/03/05 09:26:15;;;;;;;6.60;4.90;;;;;;;33.63;4.46;94313.25;5095546;28;20048;-56
2021/03/05 09:28:43;;;;;;;7.72;4.80;;;;;;;34.64;4.55;94316.91;5095622;28;20398;-55
2021/03/05 09:31:15;;;;;;;6.43;5.25;;;;;;;34.29;4.72;94302.59;5095325;28;20442;-55
2021/03/05 09:33:44;;;;;;;7.05;4.95;;;;;;;35.16;4.21;94304.56;5095346;28;20048;-56
2021/03/05 09:36:16;;;;;;;5.57;4.70;;;;;;;34.90;4.24;94303.97;5095641;28;20052;-55
2021/03/05 09:38:52;;;;;;;8.65;4.80;;;;;;;35.42;4.12;94295.03;5094147;28;20035;-53
2021/03/05 09:41:22;;;;;;;9.95;4.97;;;;;;;34.36;4.48;94294.25;5115871;28;20112;-54
2021/03/05 09:44:01;;;;;;;6.97;4.63;;;;;;;35.14;3.85;94304.25;5101625;28;20051;-55
2021/03/05 09:46:30;;;;;;;7.22;4.78;;;;;;;34.57;4.11;94298.16;5095202;28;20062;-56
2021/03/05 09:48:58;;;;;;;6.32;4.45;;;;;;;35.28;3.71;94297.50;5095212;28;20048;-56
2021/03/05 09:51:37;;;;;;;10.20;5.07;;;;;;;34.87;4.06;94286.63;5095469;28;20047;-54
2021/03/05 09:54:04;;;;;;;6.07;4.75;;;;;;;34.45;4.26;94288.13;5094812;28;20450;-56
2021/03/05 09:56:41;;;;;;;6.82;5.00;;;;;;;34.72;4.29;94296.44;5095218;28;20052;-54
2021/03/05 09:59:08;;;;;;;7.38;4.40;;;;;;;35.61;3.61;94276.78;5069902;28;20052;-53
2021/03/05 10:01:43;;;;;;;4.95;3.60;;;;;;;35.91;3.45;94288.81;5055306;28;20056;-55
2021/03/05 10:04:11;;;;;;;7.40;4.35;;;;;;;35.26;3.76;94273.50;5070742;28;20462;-55
2021/03/05 10:06:39;;;;;;;4.90;4.00;;;;;;;35.73;3.25;94277.91;5095246;28;20051;-54
2021/03/05 10:09:15;;;;;;;5.03;4.18;;;;;;;36.21;3.15;94278.28;5094686;28;20047;-56
2021/03/05 10:11:44;;;;;;;5.65;4.53;;;;;;;36.03;3.14;94273.56;5086996;28;20046;-54
2021/03/05 10:14:22;;;;;;;5.32;4.25;;;;;;;35.07;3.25;94274.63;5094576;28;20362;-56
2021/03/05 10:16:50;;;;;;;6.80;4.00;;;;;;;33.98;3.92;94272.66;5091700;28;20056;-58
2021/03/05 10:19:21;;;;;;;5.43;3.70;;;;;;;35.49;3.22;94273.00;5054719;28;20045;-55
2021/03/05 10:21:50;;;;;;;5.43;3.77;;;;;;;34.93;3.65;94265.81;5054604;28;20448;-55
2021/03/05 10:24:24;;;;;;;5.68;4.03;;;;;;;35.56;3.45;94263.06;5070981;28;20079;-54
2021/03/05 10:29:50;;;;;;;4.22;3.63;;;;;;;34.83;3.81;94252.59;5095681;28;20040;-55
2021/03/05 10:32:24;;;;;;;;;;;;;;;35.37;3.71;94251.38;5099308;28;20446;-55
2021/03/05 10:34:53;;;;;;;6.15;3.90;;;;;;;34.98;3.98;94242.00;5098761;28;19923;-55
2021/03/05 10:37:22;;;;;;;4.97;3.78;;;;;;;34.66;4.28;94243.94;5098113;28;20358;-56
2021/03/05 10:39:50;;;;;;;6.00;3.88;;;;;;;35.50;3.54;94239.19;5058313;28;20371;-56
2021/03/05 10:42:19;;;;;;;5.15;3.30;;;;;;;35.94;3.25;94244.41;5058484;28;20052;-55
2021/03/05 10:44:47;;;;;;;5.32;3.65;;;;;;;34.29;3.36;94249.09;5097841;28;20047;-55
2021/03/05 10:47:17;;;;;;;14.45;3.60;;;;;;;35.78;2.58;94242.72;5098668;28;20063;-54
2021/03/05 10:49:45;;;;;;;3.97;3.08;;;;;;;35.94;2.56;94238.97;5077234;28;20045;-55
2021/03/05 10:52:15;;;;;;;4.55;3.00;;;;;;;36.63;2.31;94238.31;5094688;28;20039;-62
2021/03/05 10:54:43;;;;;;;5.22;3.00;;;;;;;36.49;2.24;94241.69;5098217;28;20469;-56
2021/03/05 10:57:12;;;;;;;4.03;2.97;;;;;;;36.53;2.78;94228.69;5098521;28;20054;-54
2021/03/05 10:59:40;;;;;;;5.00;3.30;;;;;;;35.83;2.96;94222.34;5098423;28;20044;-53
2021/03/05 11:02:08;;;;;;;5.15;3.53;;;;;;;35.74;2.85;94220.34;5098353;28;20055;-54
2021/03/05 11:04:35;;;;;;;4.57;3.83;;;;;;;36.37;2.41;94216.16;5098006;28;20115;-54
2021/03/05 11:07:03;;;;;;;4.97;3.40;;;;;;;36.59;2.50;94215.19;5098030;28;20048;-56
2021/03/05 11:09:31;;;;;;;4.60;3.17;;;;;;;36.31;2.75;94200.88;5117090;28;20043;-57
2021/03/05 11:11:59;;;;;;;3.95;2.90;;;;;;;36.13;3.08;94191.50;5118673;28;20444;-55
2021/03/05 11:14:27;;;;;;;4.80;3.50;;;;;;;35.85;3.05;94192.72;5102003;28;20044;-54
2021/03/05 11:16:54;;;;;;;4.07;2.88;;;;;;;36.20;3.01;94189.69;5098043;28;20063;-54
2021/03/05 11:19:22;;;;;;;5.50;3.33;;;;;;;36.03;2.81;94192.72;5098036;28;20050;-54
2021/03/05 11:21:50;;;;;;;3.88;3.08;;;;;;;35.62;3.00;94176.97;5098092;28;20487;-53
2021/03/05 11:24:17;;;;;;;3.92;3.03;;;;;;;35.25;3.05;94174.19;5094273;28;20067;-54
2021/03/05 11:26:45;;;;;;;4.82;3.00;;;;;;;34.91;3.43;94173.19;5097890;28;20481;-56
2021/03/05 11:29:13;;;;;;;6.20;2.90;;;;;;;35.91;2.81;94179.28;5097812;28;20048;-59
2021/03/05 11:31:40;;;;;;;4.15;2.47;;;;;;;36.04;2.12;94180.63;5097987;28;20474;-55
2021/03/05 11:34:07;;;;;;;3.80;2.58;;;;;;;35.17;2.50;94172.97;5097563;28;20048;-58
2021/03/05 11:36:35;;;;;;;3.22;2.58;;;;;;;35.53;2.57;94178.50;5097788;28;20055;-57
2021/03/05 11:39:02;;;;;;;4.05;3.13;;;;;;;36.34;2.38;94162.63;5112205;28;20052;-57
2021/03/05 11:41:29;;;;;;;5.28;3.25;;;;;;;35.38;3.06;94158.53;5117593;28;20078;-54